<?xml version="1.0" encoding="UTF-8" standalone="no" ?>
<gpx xmlns="http://www.topografix.com/GPX/1/1" xmlns:xsi="http://www.w3.org/2001/XMLSchema-instance" xsi:schemaLocation="http://www.topografix.com/GPX/1/1 http://www.topografix.com/GPX/1/1/gpx.xsd" version="1.1" creator="VisuGPX - https://www.visugpx.com">
  <metadata>
    <name>Vacances 2021</name>
  </metadata>
  <trk>
    <name><![CDATA[Journal actif: 2021-07-25 16:06]]></name>
    <trkseg>
      <trkpt lat="49.43942" lon="4.57458">
        <ele>108.29</ele>
        <time>2021-07-25T18:06:05Z</time>
      </trkpt>
      <trkpt lat="49.44236" lon="4.57489">
        <ele>107.81</ele>
        <time>2021-07-25T18:06:23Z</time>
      </trkpt>
      <trkpt lat="49.44445" lon="4.57511">
        <ele>105.4</ele>
        <time>2021-07-25T18:06:35Z</time>
      </trkpt>
      <trkpt lat="49.44802" lon="4.57549">
        <ele>104.92</ele>
        <time>2021-07-25T18:06:52Z</time>
      </trkpt>
      <trkpt lat="49.45269" lon="4.57598">
        <ele>105.88</ele>
        <time>2021-07-25T18:07:13Z</time>
      </trkpt>
      <trkpt lat="49.45792" lon="4.57652">
        <ele>104.92</ele>
        <time>2021-07-25T18:07:37Z</time>
      </trkpt>
      <trkpt lat="49.4617" lon="4.57691">
        <ele>96.27</ele>
        <time>2021-07-25T18:07:55Z</time>
      </trkpt>
      <trkpt lat="49.46635" lon="4.57738">
        <ele>95.31</ele>
        <time>2021-07-25T18:08:17Z</time>
      </trkpt>
      <trkpt lat="49.47033" lon="4.57776">
        <ele>93.39</ele>
        <time>2021-07-25T18:08:35Z</time>
      </trkpt>
      <trkpt lat="49.47127" lon="4.57785">
        <ele>94.35</ele>
        <time>2021-07-25T18:08:42Z</time>
      </trkpt>
      <trkpt lat="49.47162" lon="4.57789">
        <ele>94.35</ele>
        <time>2021-07-25T18:08:46Z</time>
      </trkpt>
      <trkpt lat="49.4717" lon="4.57789">
        <ele>94.35</ele>
        <time>2021-07-25T18:08:47Z</time>
      </trkpt>
      <trkpt lat="49.47174" lon="4.57789">
        <ele>94.83</ele>
        <time>2021-07-25T18:08:48Z</time>
      </trkpt>
      <trkpt lat="49.47183" lon="4.57808">
        <ele>94.83</ele>
        <time>2021-07-25T18:08:49Z</time>
      </trkpt>
      <trkpt lat="49.47184" lon="4.57808">
        <ele>94.35</ele>
        <time>2021-07-25T18:08:50Z</time>
      </trkpt>
      <trkpt lat="49.47197" lon="4.57791">
        <ele>94.35</ele>
        <time>2021-07-25T18:08:51Z</time>
      </trkpt>
      <trkpt lat="49.47204" lon="4.57791">
        <ele>94.35</ele>
        <time>2021-07-25T18:08:52Z</time>
      </trkpt>
      <trkpt lat="49.47211" lon="4.57792">
        <ele>94.83</ele>
        <time>2021-07-25T18:08:53Z</time>
      </trkpt>
      <trkpt lat="49.47219" lon="4.57793">
        <ele>94.83</ele>
        <time>2021-07-25T18:08:54Z</time>
      </trkpt>
      <trkpt lat="49.47321" lon="4.57803">
        <ele>94.35</ele>
        <time>2021-07-25T18:09:03Z</time>
      </trkpt>
      <trkpt lat="49.47529" lon="4.57849">
        <ele>95.31</ele>
        <time>2021-07-25T18:09:19Z</time>
      </trkpt>
      <trkpt lat="49.47731" lon="4.5793">
        <ele>84.73</ele>
        <time>2021-07-25T18:09:37Z</time>
      </trkpt>
      <trkpt lat="49.47755" lon="4.57939">
        <ele>84.25</ele>
        <time>2021-07-25T18:09:42Z</time>
      </trkpt>
      <trkpt lat="49.47759" lon="4.5794">
        <ele>84.25</ele>
        <time>2021-07-25T18:09:43Z</time>
      </trkpt>
      <trkpt lat="49.47763" lon="4.5794">
        <ele>84.25</ele>
        <time>2021-07-25T18:09:44Z</time>
      </trkpt>
      <trkpt lat="49.47766" lon="4.57941">
        <ele>84.25</ele>
        <time>2021-07-25T18:09:45Z</time>
      </trkpt>
      <trkpt lat="49.47766" lon="4.57954">
        <ele>83.77</ele>
        <time>2021-07-25T18:09:46Z</time>
      </trkpt>
      <trkpt lat="49.47764" lon="4.5796">
        <ele>82.81</ele>
        <time>2021-07-25T18:09:47Z</time>
      </trkpt>
      <trkpt lat="49.47762" lon="4.57967">
        <ele>82.81</ele>
        <time>2021-07-25T18:09:48Z</time>
      </trkpt>
      <trkpt lat="49.47756" lon="4.57986">
        <ele>82.33</ele>
        <time>2021-07-25T18:09:49Z</time>
      </trkpt>
      <trkpt lat="49.47756" lon="4.57986">
        <ele>82.33</ele>
        <time>2021-07-25T18:09:50Z</time>
      </trkpt>
      <trkpt lat="49.47712" lon="4.58122">
        <ele>81.37</ele>
        <time>2021-07-25T18:10:00Z</time>
      </trkpt>
      <trkpt lat="49.47634" lon="4.58357">
        <ele>82.81</ele>
        <time>2021-07-25T18:10:13Z</time>
      </trkpt>
      <trkpt lat="49.47613" lon="4.58419">
        <ele>85.21</ele>
        <time>2021-07-25T18:10:18Z</time>
      </trkpt>
      <trkpt lat="49.47609" lon="4.58436">
        <ele>86.66</ele>
        <time>2021-07-25T18:10:19Z</time>
      </trkpt>
      <trkpt lat="49.47608" lon="4.58456">
        <ele>86.18</ele>
        <time>2021-07-25T18:10:20Z</time>
      </trkpt>
      <trkpt lat="49.47607" lon="4.58473">
        <ele>86.18</ele>
        <time>2021-07-25T18:10:21Z</time>
      </trkpt>
      <trkpt lat="49.47608" lon="4.58491">
        <ele>86.66</ele>
        <time>2021-07-25T18:10:22Z</time>
      </trkpt>
      <trkpt lat="49.47609" lon="4.58553">
        <ele>87.14</ele>
        <time>2021-07-25T18:10:25Z</time>
      </trkpt>
      <trkpt lat="49.47606" lon="4.58576">
        <ele>87.62</ele>
        <time>2021-07-25T18:10:26Z</time>
      </trkpt>
      <trkpt lat="49.47602" lon="4.58599">
        <ele>88.58</ele>
        <time>2021-07-25T18:10:27Z</time>
      </trkpt>
      <trkpt lat="49.47546" lon="4.5886">
        <ele>95.79</ele>
        <time>2021-07-25T18:10:38Z</time>
      </trkpt>
      <trkpt lat="49.47472" lon="4.59125">
        <ele>96.75</ele>
        <time>2021-07-25T18:10:51Z</time>
      </trkpt>
      <trkpt lat="49.47368" lon="4.59425">
        <ele>94.35</ele>
        <time>2021-07-25T18:11:04Z</time>
      </trkpt>
      <trkpt lat="49.4725" lon="4.59729">
        <ele>97.23</ele>
        <time>2021-07-25T18:11:16Z</time>
      </trkpt>
      <trkpt lat="49.47134" lon="4.60018">
        <ele>98.67</ele>
        <time>2021-07-25T18:11:27Z</time>
      </trkpt>
      <trkpt lat="49.47123" lon="4.6004">
        <ele>99.63</ele>
        <time>2021-07-25T18:11:28Z</time>
      </trkpt>
      <trkpt lat="49.47108" lon="4.60059">
        <ele>100.6</ele>
        <time>2021-07-25T18:11:29Z</time>
      </trkpt>
      <trkpt lat="49.47095" lon="4.60078">
        <ele>101.56</ele>
        <time>2021-07-25T18:11:30Z</time>
      </trkpt>
      <trkpt lat="49.4708" lon="4.60095">
        <ele>101.56</ele>
        <time>2021-07-25T18:11:31Z</time>
      </trkpt>
      <trkpt lat="49.46991" lon="4.6019">
        <ele>101.08</ele>
        <time>2021-07-25T18:11:37Z</time>
      </trkpt>
      <trkpt lat="49.4698" lon="4.60207">
        <ele>100.6</ele>
        <time>2021-07-25T18:11:38Z</time>
      </trkpt>
      <trkpt lat="49.4697" lon="4.60223">
        <ele>99.15</ele>
        <time>2021-07-25T18:11:39Z</time>
      </trkpt>
      <trkpt lat="49.4696" lon="4.60241">
        <ele>99.15</ele>
        <time>2021-07-25T18:11:40Z</time>
      </trkpt>
      <trkpt lat="49.46952" lon="4.60264">
        <ele>100.11</ele>
        <time>2021-07-25T18:11:41Z</time>
      </trkpt>
      <trkpt lat="49.46841" lon="4.60594">
        <ele>105.4</ele>
        <time>2021-07-25T18:11:54Z</time>
      </trkpt>
      <trkpt lat="49.4672" lon="4.60901">
        <ele>103.96</ele>
        <time>2021-07-25T18:12:06Z</time>
      </trkpt>
      <trkpt lat="49.46584" lon="4.61282">
        <ele>103.48</ele>
        <time>2021-07-25T18:12:20Z</time>
      </trkpt>
      <trkpt lat="49.4655" lon="4.61529">
        <ele>103.48</ele>
        <time>2021-07-25T18:12:28Z</time>
      </trkpt>
      <trkpt lat="49.46491" lon="4.62179">
        <ele>106.84</ele>
        <time>2021-07-25T18:12:48Z</time>
      </trkpt>
      <trkpt lat="49.46436" lon="4.62681">
        <ele>104.44</ele>
        <time>2021-07-25T18:13:04Z</time>
      </trkpt>
      <trkpt lat="49.46399" lon="4.62835">
        <ele>102.52</ele>
        <time>2021-07-25T18:13:12Z</time>
      </trkpt>
      <trkpt lat="49.46348" lon="4.62991">
        <ele>97.71</ele>
        <time>2021-07-25T18:13:23Z</time>
      </trkpt>
      <trkpt lat="49.46329" lon="4.6303">
        <ele>96.27</ele>
        <time>2021-07-25T18:13:31Z</time>
      </trkpt>
    </trkseg>
  </trk>
</gpx>